Time;durP1;ratioP1;P1;durP2;ratioP2;P2;SDS_P1;SDS_P2;PMS_P1;PMS_P2;Temp;Humidity;BMP_temperature;BMP_pressure;BME280_temperature;BME280_humidity;BME280_pressure;Samples;Min_cycle;Max_cycle;Signal;HPM_P1;HPM_P2
2023/12/04 00:01:37;;;;;;;27.00;12.20;;;1.60;99.90;;;;;;5025838;28;20072;-65
2023/12/04 00:04:05;;;;;;;24.63;11.13;;;1.60;99.90;;;;;;5037247;28;20037;-65
2023/12/04 00:06:33;;;;;;;28.00;11.18;;;1.50;99.90;;;;;;5039270;28;21585;-65
2023/12/04 00:09:01;;;;;;;;;;;1.50;99.90;;;;;;5038837;28;20036;-64
2023/12/04 00:11:29;;;;;;;28.98;11.40;;;1.50;99.90;;;;;;5039459;28;19916;-64
2023/12/04 00:13:56;;;;;;;30.20;10.73;;;1.60;99.90;;;;;;5020898;28;20032;-64
2023/12/04 00:16:22;;;;;;;26.00;11.50;;;1.60;99.90;;;;;;5046334;28;20098;-64
2023/12/04 00:18:48;;;;;;;26.73;11.40;;;1.50;99.90;;;;;;5036949;28;20618;-64
2023/12/04 00:21:15;;;;;;;26.08;11.23;;;1.50;99.90;;;;;;5039501;28;20116;-64
2023/12/04 00:23:43;;;;;;;;;;;1.40;99.90;;;;;;5038053;28;20040;-64
2023/12/04 00:26:11;;;;;;;29.95;11.25;;;1.50;99.90;;;;;;5039515;28;19923;-64
2023/12/04 00:28:42;;;;;;;25.30;11.52;;;1.50;99.90;;;;;;5038514;28;20036;-64
2023/12/04 00:31:14;;;;;;;32.28;12.52;;;1.40;99.90;;;;;;5038528;28;20032;-64
2023/12/04 00:33:39;;;;;;;26.30;11.75;;;1.40;99.90;;;;;;5037099;28;20032;-64
2023/12/04 00:36:05;;;;;;;31.23;12.77;;;1.40;99.90;;;;;;5040870;28;22412;-64
2023/12/04 00:38:31;;;;;;;29.15;12.38;;;1.30;99.90;;;;;;5037455;28;20042;-64
2023/12/04 00:40:56;;;;;;;25.33;11.40;;;1.40;99.90;;;;;;5022091;28;23201;-64
2023/12/04 00:43:24;;;;;;;22.75;11.05;;;1.30;99.90;;;;;;5038703;28;20113;-64
2023/12/04 00:45:50;;;;;;;27.02;11.75;;;1.30;99.90;;;;;;5039142;28;20551;-64
2023/12/04 00:48:15;;;;;;;28.35;11.73;;;1.30;99.90;;;;;;5028190;22;20049;-64
2023/12/04 00:50:43;;;;;;;28.88;12.10;;;1.30;99.90;;;;;;4984224;28;20798;-64
2023/12/04 00:53:11;;;;;;;23.60;10.95;;;1.30;99.90;;;;;;5002872;28;20549;-64
2023/12/04 00:55:37;;;;;;;;;;;1.40;99.90;;;;;;5003650;28;20786;-69
2023/12/04 00:58:07;;;;;;;25.23;11.85;;;1.40;99.90;;;;;;5010090;28;19913;-67
2023/12/04 01:00:32;;;;;;;33.40;11.38;;;1.50;99.90;;;;;;4985501;28;20038;-67
2023/12/04 01:02:58;;;;;;;24.73;10.90;;;1.50;99.90;;;;;;5002472;28;20038;-67
2023/12/04 01:05:26;;;;;;;25.00;10.68;;;1.60;99.90;;;;;;5005539;28;20053;-67
2023/12/04 01:07:52;;;;;;;25.17;10.50;;;1.60;99.90;;;;;;5001208;28;20125;-67
2023/12/04 01:10:18;;;;;;;22.25;10.57;;;1.50;99.90;;;;;;5002664;28;20064;-67
2023/12/04 01:12:43;;;;;;;24.05;10.63;;;1.50;99.90;;;;;;5003419;28;20747;-67
2023/12/04 01:15:09;;;;;;;23.20;10.02;;;1.50;99.90;;;;;;5003146;28;20480;-67
2023/12/04 01:17:37;;;;;;;21.88;8.80;;;1.60;99.90;;;;;;5002119;28;21822;-67
2023/12/04 01:20:04;;;;;;;24.98;9.48;;;1.60;99.90;;;;;;5004124;28;21606;-67
2023/12/04 01:22:30;;;;;;;21.67;9.57;;;1.70;99.90;;;;;;5002872;28;20026;-67
2023/12/04 01:24:55;;;;;;;17.88;8.23;;;1.70;99.90;;;;;;5003177;28;20079;-67
2023/12/04 01:27:23;;;;;;;23.70;9.88;;;1.70;99.90;;;;;;5002535;28;20522;-67
2023/12/04 01:29:49;;;;;;;;;;;1.70;99.90;;;;;;5004133;28;20688;-67
2023/12/04 01:32:14;;;;;;;18.40;8.35;;;1.70;99.90;;;;;;5000729;28;19952;-67
2023/12/04 01:34:40;;;;;;;22.67;10.25;;;1.70;99.90;;;;;;5004472;28;20033;-67
2023/12/04 01:37:05;;;;;;;18.70;8.38;;;1.70;99.90;;;;;;5000559;28;20137;-67
2023/12/04 01:39:31;;;;;;;18.15;8.13;;;1.70;99.90;;;;;;5003868;28;20045;-67
2023/12/04 01:41:57;;;;;;;20.95;8.77;;;1.70;99.90;;;;;;5001029;28;20039;-67
2023/12/04 01:44:22;;;;;;;19.58;8.57;;;1.70;99.90;;;;;;4998253;28;20025;-67
2023/12/04 01:46:53;;;;;;;22.05;9.43;;;1.70;99.90;;;;;;5000467;28;20988;-67
2023/12/04 01:49:19;;;;;;;20.33;8.82;;;1.80;99.90;;;;;;5003159;28;20579;-67
2023/12/04 01:51:46;;;;;;;19.42;8.40;;;1.70;99.90;;;;;;5001138;28;20034;-67
2023/12/04 01:54:12;;;;;;;19.38;8.93;;;1.80;99.90;;;;;;5001137;28;20061;-67
2023/12/04 01:56:40;;;;;;;19.42;8.65;;;1.80;99.90;;;;;;5001763;28;20037;-67
2023/12/04 01:59:06;;;;;;;24.17;8.65;;;1.90;99.90;;;;;;4996603;28;20976;-67
2023/12/04 02:01:32;;;;;;;24.23;9.00;;;1.70;99.90;;;;;;5000320;28;20029;-67
2023/12/04 02:04:01;;;;;;;24.80;10.43;;;1.70;99.90;;;;;;5003006;28;20180;-67
2023/12/04 02:06:27;;;;;;;18.55;8.05;;;1.70;99.90;;;;;;4997866;28;20025;-67
2023/12/04 02:08:52;;;;;;;23.05;9.88;;;1.70;99.90;;;;;;5001469;28;20403;-67
2023/12/04 02:11:18;;;;;;;24.38;9.73;;;1.60;99.90;;;;;;5001284;28;20049;-67
2023/12/04 02:13:46;;;;;;;20.33;9.38;;;1.60;99.90;;;;;;5004890;28;20052;-67
2023/12/04 02:16:14;;;;;;;24.45;10.63;;;1.70;99.90;;;;;;5001620;28;20042;-67
2023/12/04 02:18:41;;;;;;;25.85;9.90;;;1.70;99.90;;;;;;5000632;28;20046;-67
2023/12/04 02:21:06;;;;;;;23.25;10.70;;;1.50;99.90;;;;;;5001768;28;20083;-67
2023/12/04 02:23:32;;;;;;;25.33;10.60;;;1.50;99.90;;;;;;5001772;28;20151;-67
2023/12/04 02:26:21;;;;;;;24.42;10.45;;;1.50;99.90;;;;;;5000360;28;20049;-67
2023/12/04 02:28:55;;;;;;;26.02;11.13;;;1.50;99.90;;;;;;5002206;28;21046;-67
2023/12/04 02:31:25;;;;;;;24.60;10.70;;;1.50;99.90;;;;;;4998774;28;20038;-67
2023/12/04 02:33:56;;;;;;;22.33;9.93;;;1.50;99.90;;;;;;5000931;28;20051;-67
2023/12/04 02:36:27;;;;;;;24.17;10.10;;;1.50;99.90;;;;;;5002698;28;20064;-67
2023/12/04 02:38:53;;;;;;;23.17;9.73;;;1.60;99.90;;;;;;5001310;28;20076;-67
2023/12/04 02:41:19;;;;;;;24.20;10.38;;;1.60;99.90;;;;;;4999590;28;20026;-67
2023/12/04 02:43:47;;;;;;;26.95;10.98;;;1.50;99.90;;;;;;5000899;28;20033;-67
2023/12/04 02:46:17;;;;;;;26.67;10.85;;;1.60;99.90;;;;;;5000726;28;20137;-67
2023/12/04 02:48:43;;;;;;;24.13;10.55;;;1.70;99.90;;;;;;5001814;28;20037;-67
2023/12/04 02:51:10;;;;;;;24.48;11.10;;;1.80;99.90;;;;;;4983506;28;20075;-67
2023/12/04 02:53:38;;;;;;;24.33;10.25;;;1.70;99.90;;;;;;4998725;28;20136;-67
2023/12/04 02:56:04;;;;;;;25.27;11.30;;;1.60;99.90;;;;;;5000877;28;20034;-67
2023/12/04 02:58:29;;;;;;;25.65;10.85;;;1.60;99.90;;;;;;5000464;28;20044;-67
2023/12/04 03:00:55;;;;;;;23.10;9.85;;;1.50;99.90;;;;;;4999151;28;20485;-67
2023/12/04 03:03:20;;;;;;;23.45;10.52;;;1.60;99.90;;;;;;5006947;28;20052;-67
2023/12/04 03:05:46;;;;;;;20.98;10.00;;;1.70;99.90;;;;;;5000100;28;20087;-67
2023/12/04 03:08:11;;;;;;;22.75;9.40;;;1.70;99.90;;;;;;5002100;28;20116;-67
2023/12/04 03:10:37;;;;;;;25.00;10.68;;;1.60;99.90;;;;;;5000507;28;22146;-67
2023/12/04 03:13:02;;;;;;;25.48;10.43;;;1.60;99.90;;;;;;5002582;28;20059;-67
2023/12/04 03:15:28;;;;;;;26.48;10.93;;;1.60;99.90;;;;;;4984051;28;20048;-67
2023/12/04 03:17:59;;;;;;;21.55;9.77;;;1.60;99.90;;;;;;4999115;28;22753;-67
2023/12/04 03:20:27;;;;;;;25.67;10.57;;;1.70;99.90;;;;;;4987497;28;20460;-67
2023/12/04 03:22:52;;;;;;;22.55;10.13;;;1.70;99.90;;;;;;5000370;28;20068;-67
2023/12/04 03:25:20;;;;;;;27.48;11.00;;;1.70;99.90;;;;;;5002826;28;20121;-67
2023/12/04 03:27:46;;;;;;;21.23;10.10;;;1.70;99.90;;;;;;4999471;28;20484;-67
2023/12/04 03:30:12;;;;;;;22.70;10.30;;;1.70;99.90;;;;;;5003055;28;20043;-67
2023/12/04 03:32:40;;;;;;;27.23;10.05;;;1.70;99.90;;;;;;4999033;28;20114;-67
2023/12/04 03:35:06;;;;;;;26.60;10.38;;;1.80;99.90;;;;;;5003086;28;20030;-67
2023/12/04 03:37:31;;;;;;;27.25;10.88;;;1.70;99.90;;;;;;4999471;28;20041;-67
2023/12/04 03:39:59;;;;;;;23.73;11.05;;;1.70;99.90;;;;;;5001326;28;20044;-67
2023/12/04 03:42:25;;;;;;;21.67;9.82;;;1.80;99.90;;;;;;5000896;28;20854;-67
2023/12/04 03:44:50;;;;;;;23.27;9.82;;;1.90;99.90;;;;;;4999851;28;20132;-67
2023/12/04 03:47:18;;;;;;;28.17;9.90;;;1.90;99.90;;;;;;4999440;28;20030;-67
2023/12/04 03:49:46;;;;;;;26.38;9.95;;;1.90;99.90;;;;;;5001681;28;20177;-67
2023/12/04 03:52:11;;;;;;;25.33;10.50;;;1.90;99.90;;;;;;5001231;28;20042;-67
2023/12/04 03:54:37;;;;;;;21.30;9.48;;;1.90;99.90;;;;;;4999698;28;20042;-67
2023/12/04 03:57:03;;;;;;;22.27;9.70;;;1.80;99.90;;;;;;4999204;28;20104;-67
2023/12/04 03:59:28;;;;;;;22.40;10.75;;;1.80;99.90;;;;;;4999825;28;20088;-67
2023/12/04 04:01:56;;;;;;;22.13;9.95;;;1.90;99.90;;;;;;4999418;28;20818;-67
2023/12/04 04:04:22;;;;;;;;;;;1.90;99.90;;;;;;5001257;28;20111;-67
2023/12/04 04:06:47;;;;;;;22.73;9.98;;;1.90;99.90;;;;;;4999951;28;19917;-67
2023/12/04 04:09:13;;;;;;;21.98;9.95;;;1.90;99.90;;;;;;5001141;28;20041;-67
2023/12/04 04:11:38;;;;;;;22.77;10.27;;;1.80;99.90;;;;;;5000695;28;20044;-67
2023/12/04 04:14:04;;;;;;;21.42;8.75;;;1.80;99.90;;;;;;4999767;28;20538;-67
2023/12/04 04:16:30;;;;;;;23.67;8.60;;;1.70;99.90;;;;;;4998151;28;20537;-67
2023/12/04 04:19:00;;;;;;;18.92;8.77;;;1.80;99.90;;;;;;4998874;28;20037;-67
2023/12/04 04:21:25;;;;;;;19.17;8.85;;;1.80;99.90;;;;;;4997943;28;20063;-67
2023/12/04 04:23:53;;;;;;;24.52;9.95;;;1.80;99.90;;;;;;5001344;28;20539;-67
2023/12/04 04:26:19;;;;;;;17.80;8.15;;;1.90;99.90;;;;;;5000729;28;20040;-67
2023/12/04 04:28:45;;;;;;;18.27;8.82;;;1.90;99.90;;;;;;5000713;28;20029;-67
2023/12/04 04:31:10;;;;;;;23.35;9.52;;;1.80;99.90;;;;;;4997793;28;20420;-67
2023/12/04 04:33:36;;;;;;;18.85;8.23;;;1.90;99.90;;;;;;5000807;28;20037;-67
2023/12/04 04:36:04;;;;;;;22.10;9.85;;;1.90;99.90;;;;;;5001714;28;20064;-67
2023/12/04 04:38:30;;;;;;;18.05;8.52;;;1.90;99.90;;;;;;4999479;28;21382;-67
2023/12/04 04:40:55;;;;;;;19.50;9.00;;;1.90;99.90;;;;;;4998532;28;23018;-67
2023/12/04 04:43:23;;;;;;;18.45;8.88;;;1.90;99.90;;;;;;4999835;28;20030;-67
2023/12/04 04:45:49;;;;;;;20.65;9.00;;;2.00;99.90;;;;;;4999902;28;20488;-67
2023/12/04 04:48:16;;;;;;;17.38;8.32;;;2.00;99.90;;;;;;5003949;28;20072;-67
2023/12/04 04:50:42;;;;;;;22.08;9.05;;;2.00;99.90;;;;;;5002157;28;20046;-67
2023/12/04 04:53:10;;;;;;;17.15;8.95;;;2.00;99.90;;;;;;5003824;28;20633;-67
2023/12/04 04:55:38;;;;;;;16.92;8.05;;;2.00;99.90;;;;;;5001784;28;20570;-67
2023/12/04 04:58:03;;;;;;;14.63;7.80;;;2.10;99.90;;;;;;5003722;28;20033;-67
2023/12/04 05:00:31;;;;;;;17.52;7.80;;;2.10;99.90;;;;;;5002058;28;20084;-67
2023/12/04 05:02:57;;;;;;;;;;;2.10;99.90;;;;;;5001391;28;20136;-67
2023/12/04 05:05:23;;;;;;;15.55;7.30;;;2.10;99.90;;;;;;5003523;28;19917;-67
2023/12/04 05:07:48;;;;;;;17.50;7.70;;;2.10;99.90;;;;;;5001706;28;20029;-67
2023/12/04 05:10:19;;;;;;;17.38;8.10;;;2.00;99.90;;;;;;5003060;28;20025;-67
2023/12/04 05:12:44;;;;;;;15.95;7.47;;;2.00;99.90;;;;;;5001296;28;20065;-67
2023/12/04 05:15:10;;;;;;;15.77;7.40;;;2.00;99.90;;;;;;5002222;28;20148;-67
2023/12/04 05:17:35;;;;;;;16.95;8.07;;;2.10;99.90;;;;;;5002762;28;20118;-67
2023/12/04 05:20:01;;;;;;;19.35;7.80;;;2.10;99.90;;;;;;5003995;28;20065;-67
2023/12/04 05:22:26;;;;;;;20.80;8.18;;;2.10;99.90;;;;;;5001333;28;20112;-67
2023/12/04 05:24:52;;;;;;;16.88;8.23;;;2.10;99.90;;;;;;5004371;28;20018;-67
2023/12/04 05:27:17;;;;;;;18.77;7.97;;;2.20;99.90;;;;;;5002942;28;20037;-67
2023/12/04 05:29:46;;;;;;;17.27;7.97;;;2.20;99.90;;;;;;5003503;28;20038;-67
2023/12/04 05:32:12;;;;;;;16.00;7.15;;;2.20;99.90;;;;;;5002835;28;20037;-67
2023/12/04 05:34:38;;;;;;;19.08;9.02;;;2.20;99.90;;;;;;5002996;28;20026;-66
2023/12/04 05:37:06;;;;;;;16.95;8.13;;;2.30;99.90;;;;;;5002209;28;20046;-67
2023/12/04 05:39:31;;;;;;;16.77;7.85;;;2.30;99.90;;;;;;5002193;28;20499;-67
2023/12/04 05:41:59;;;;;;;15.00;7.45;;;2.30;99.90;;;;;;5000838;28;20048;-67
2023/12/04 05:44:25;;;;;;;;;;;2.30;99.90;;;;;;5002798;28;20556;-67
2023/12/04 05:46:50;;;;;;;21.30;8.18;;;2.30;99.90;;;;;;5001526;28;19963;-67
2023/12/04 05:49:16;;;;;;;16.38;7.35;;;2.20;99.90;;;;;;5000516;28;20045;-67
2023/12/04 05:51:42;;;;;;;18.08;7.57;;;2.20;99.90;;;;;;5000074;28;20041;-67
2023/12/04 05:54:10;;;;;;;16.48;7.32;;;2.20;99.90;;;;;;5000895;28;20034;-67
2023/12/04 05:56:35;;;;;;;;;;;2.20;99.90;;;;;;5003393;28;20041;-67
2023/12/04 05:59:04;;;;;;;15.25;7.35;;;2.30;99.90;;;;;;5002404;28;19921;-67
2023/12/04 06:01:32;;;;;;;19.25;8.13;;;2.30;99.90;;;;;;5000780;28;20144;-67
2023/12/04 06:04:00;;;;;;;16.02;6.93;;;2.30;99.90;;;;;;5003773;28;20033;-67
2023/12/04 06:06:26;;;;;;;;;;;2.20;99.90;;;;;;5001379;28;20982;-67
2023/12/04 06:08:52;;;;;;;15.07;7.00;;;2.10;99.90;;;;;;5002269;28;20268;-67
2023/12/04 06:11:20;;;;;;;14.40;6.80;;;2.20;99.90;;;;;;5000737;28;20041;-67
2023/12/04 06:13:45;;;;;;;18.48;8.13;;;2.20;99.90;;;;;;5001869;28;20042;-67
2023/12/04 06:16:13;;;;;;;16.90;7.47;;;2.20;99.90;;;;;;5003394;28;20048;-67
2023/12/04 06:18:41;;;;;;;;;;;2.30;99.90;;;;;;5008296;28;20963;-67
2023/12/04 06:21:07;;;;;;;;;;;2.20;99.90;;;;;;5001237;28;20508;-67
2023/12/04 06:23:35;;;;;;;17.67;7.97;;;2.20;99.90;;;;;;5001857;28;19917;-67
2023/12/04 06:26:01;;;;;;;18.20;8.80;;;2.20;99.90;;;;;;5001193;28;20034;-67
2023/12/04 06:28:29;;;;;;;16.83;7.53;;;2.20;99.90;;;;;;5001289;28;20041;-67
2023/12/04 06:30:55;;;;;;;18.58;8.32;;;2.20;99.90;;;;;;5000008;28;20769;-67
2023/12/04 06:33:23;;;;;;;17.30;8.65;;;2.30;99.90;;;;;;5002164;28;20075;-67
2023/12/04 06:35:51;;;;;;;17.63;8.15;;;2.30;99.90;;;;;;5000557;28;20037;-67
2023/12/04 06:38:22;;;;;;;19.75;7.97;;;2.30;99.90;;;;;;5000696;28;20043;-67
2023/12/04 06:40:50;;;;;;;15.43;7.32;;;2.30;99.90;;;;;;5001449;28;21034;-67
2023/12/04 06:43:18;;;;;;;17.42;7.63;;;2.20;99.90;;;;;;5002282;28;20029;-67
2023/12/04 06:45:45;;;;;;;18.58;7.45;;;2.30;99.90;;;;;;4999847;28;20052;-67
2023/12/04 06:48:17;;;;;;;15.68;7.78;;;2.20;99.90;;;;;;5058217;22;20060;-92
2023/12/04 06:50:45;;;;;;;17.38;7.25;;;2.20;99.90;;;;;;5034089;28;20120;-93
2023/12/04 06:53:11;;;;;;;16.85;7.38;;;2.30;99.90;;;;;;5026982;28;20666;-91
2023/12/04 06:55:37;;;;;;;17.92;8.18;;;2.20;99.90;;;;;;4995206;28;20535;-94
2023/12/04 06:58:02;;;;;;;17.95;8.75;;;2.30;99.90;;;;;;5017860;28;20025;-92
2023/12/04 07:00:28;;;;;;;18.75;7.95;;;2.30;99.90;;;;;;5023700;28;20033;-94
2023/12/04 07:02:53;;;;;;;17.08;7.97;;;2.30;99.90;;;;;;5020776;28;20029;-94
2023/12/04 07:05:20;;;;;;;17.33;7.80;;;2.30;99.90;;;;;;5020909;28;20032;-94
2023/12/04 07:07:46;;;;;;;16.38;7.75;;;2.30;99.90;;;;;;5025742;28;20021;-93
2023/12/04 07:10:14;;;;;;;21.77;8.77;;;2.20;99.90;;;;;;5015584;28;20071;-94
2023/12/04 07:12:44;;;;;;;18.17;8.52;;;2.20;99.90;;;;;;5019904;28;20504;-94
2023/12/04 07:16:06;;;;;;;18.35;8.23;;;2.30;99.90;;;;;;5019915;28;20025;-94
2023/12/04 07:18:33;;;;;;;15.85;7.03;;;2.40;99.90;;;;;;4956941;28;20039;-93
2023/12/04 07:21:05;;;;;;;16.75;7.68;;;2.50;99.90;;;;;;5034443;28;20288;-94
2023/12/04 07:23:31;;;;;;;18.52;8.50;;;2.40;99.90;;;;;;4988371;28;20037;-92
2023/12/04 07:25:57;;;;;;;15.20;8.18;;;2.40;99.90;;;;;;5007464;28;20044;-95
2023/12/04 07:28:28;;;;;;;16.15;8.25;;;2.40;99.90;;;;;;5021712;28;20386;-95
2023/12/04 07:31:01;;;;;;;14.45;7.63;;;2.40;99.90;;;;;;5035249;28;20488;-96
2023/12/04 07:33:30;;;;;;;15.25;7.72;;;2.40;99.90;;;;;;5028114;28;20119;-94
2023/12/04 07:36:13;;;;;;;17.42;7.68;;;2.40;99.90;;;;;;5045225;28;20106;-94
2023/12/04 07:38:39;;;;;;;15.05;7.35;;;2.40;99.90;;;;;;5007969;28;20036;-95
2023/12/04 07:41:05;;;;;;;20.08;8.85;;;2.40;99.90;;;;;;5041639;28;20734;-95
2023/12/04 07:43:40;;;;;;;15.93;6.93;;;2.40;99.90;;;;;;5025199;28;20024;-93
2023/12/04 07:46:06;;;;;;;15.40;8.07;;;2.40;99.90;;;;;;5023261;28;20484;-94
2023/12/04 07:48:41;;;;;;;17.75;7.70;;;2.30;99.90;;;;;;5028839;28;20056;-94
2023/12/04 07:51:07;;;;;;;18.85;7.97;;;2.30;99.90;;;;;;5026073;28;20060;-94
2023/12/04 07:53:34;;;;;;;17.98;8.73;;;2.20;99.90;;;;;;5022783;28;20033;-93
2023/12/04 07:56:06;;;;;;;15.88;7.38;;;2.40;99.90;;;;;;5049954;22;20089;-67
2023/12/04 07:58:31;;;;;;;17.98;8.48;;;2.30;99.90;;;;;;5049160;28;20052;-67
2023/12/04 08:00:58;;;;;;;15.27;7.75;;;2.40;99.90;;;;;;5051272;28;20509;-68
2023/12/04 08:03:26;;;;;;;17.20;8.30;;;2.40;99.90;;;;;;5051740;28;20035;-67
2023/12/04 08:05:51;;;;;;;18.83;8.35;;;2.30;99.90;;;;;;5057413;28;20330;-67
2023/12/04 08:08:17;;;;;;;15.65;7.45;;;2.40;99.90;;;;;;5055093;28;20064;-68
2023/12/04 08:10:42;;;;;;;17.25;7.82;;;2.40;99.90;;;;;;5042977;28;22157;-67
2023/12/04 08:13:08;;;;;;;18.27;8.52;;;2.40;99.90;;;;;;5058292;28;20151;-67
2023/12/04 08:15:36;;;;;;;20.10;8.68;;;2.40;99.90;;;;;;5058467;28;20476;-68
2023/12/04 08:18:06;;;;;;;18.15;8.57;;;2.40;99.90;;;;;;5059722;28;20024;-67
2023/12/04 08:20:32;;;;;;;16.15;7.72;;;2.40;99.80;;;;;;5057617;28;20668;-68
2023/12/04 08:23:01;;;;;;;14.93;7.47;;;2.40;99.90;;;;;;5062893;28;20016;-67
2023/12/04 08:25:29;;;;;;;17.30;8.05;;;2.40;99.90;;;;;;5063542;28;20767;-67
2023/12/04 08:27:57;;;;;;;15.93;7.78;;;2.50;99.90;;;;;;5063948;28;20043;-68
2023/12/04 08:30:23;;;;;;;13.48;7.88;;;2.40;99.90;;;;;;5059182;28;20474;-68
2023/12/04 08:32:51;;;;;;;15.50;8.30;;;2.40;99.90;;;;;;5064524;28;20036;-68
2023/12/04 08:35:16;;;;;;;;;;;2.40;99.90;;;;;;5066049;28;20055;-67
2023/12/04 08:37:42;;;;;;;18.45;8.15;;;2.40;99.90;;;;;;5067144;28;20007;-68
2023/12/04 08:40:08;;;;;;;15.98;7.85;;;2.50;99.90;;;;;;5063173;28;20824;-68
2023/12/04 08:42:34;;;;;;;19.55;8.63;;;2.50;99.90;;;;;;5063469;28;20052;-68
2023/12/04 08:44:59;;;;;;;18.63;8.63;;;2.50;99.90;;;;;;5060042;28;21257;-67
2023/12/04 08:47:25;;;;;;;14.40;8.00;;;2.40;99.90;;;;;;5061545;28;20024;-68
2023/12/04 08:49:53;;;;;;;17.85;8.60;;;2.30;99.90;;;;;;5060540;28;20028;-68
2023/12/04 08:52:19;;;;;;;18.00;8.35;;;2.30;99.90;;;;;;5059906;28;20040;-68
2023/12/04 08:54:47;;;;;;;18.92;8.60;;;2.40;99.90;;;;;;5057771;28;20032;-67
2023/12/04 08:57:15;;;;;;;20.00;9.57;;;2.50;99.90;;;;;;5062653;28;20506;-68
2023/12/04 08:59:41;;;;;;;18.40;8.88;;;2.40;99.90;;;;;;5058236;28;20130;-66
2023/12/04 09:02:07;;;;;;;20.15;9.68;;;2.40;99.90;;;;;;5058303;28;20202;-64
2023/12/04 09:04:35;;;;;;;15.95;7.70;;;2.40;99.90;;;;;;5058617;28;20151;-64
2023/12/04 09:07:00;;;;;;;18.67;9.13;;;2.40;99.90;;;;;;5059729;28;20031;-64
2023/12/04 09:09:26;;;;;;;18.10;8.88;;;2.50;99.90;;;;;;5040906;28;20024;-64
2023/12/04 09:11:51;;;;;;;17.70;8.70;;;2.50;99.90;;;;;;5059933;28;20780;-64
2023/12/04 09:14:17;;;;;;;19.00;8.63;;;2.50;99.90;;;;;;5057237;28;20039;-64
2023/12/04 09:16:45;;;;;;;17.92;9.07;;;2.50;99.90;;;;;;5063136;28;20028;-64
2023/12/04 09:19:10;;;;;;;;;;;2.50;99.90;;;;;;5061653;28;20564;-64
2023/12/04 09:21:36;;;;;;;21.23;8.80;;;2.60;99.90;;;;;;5059669;28;19916;-64
2023/12/04 09:24:02;;;;;;;20.30;8.77;;;2.40;99.90;;;;;;5057477;28;20486;-64
2023/12/04 09:26:28;;;;;;;17.88;8.30;;;2.40;99.90;;;;;;5059014;28;20052;-64
2023/12/04 09:28:53;;;;;;;17.63;8.68;;;2.40;99.90;;;;;;5059113;28;20036;-64
2023/12/04 09:31:19;;;;;;;21.10;9.63;;;2.50;99.90;;;;;;5058095;28;20036;-64
2023/12/04 09:33:45;;;;;;;17.85;8.63;;;2.50;99.90;;;;;;5057935;28;20039;-64
2023/12/04 09:36:10;;;;;;;16.73;7.88;;;2.60;99.90;;;;;;5066722;28;20051;-64
2023/12/04 09:38:38;;;;;;;16.80;8.20;;;2.60;99.90;;;;;;5059409;28;20112;-64
2023/12/04 09:41:09;;;;;;;18.45;9.15;;;2.70;99.90;;;;;;5060120;28;20036;-64
2023/12/04 09:43:35;;;;;;;19.90;8.77;;;2.70;99.90;;;;;;5057581;28;20040;-64
2023/12/04 09:46:03;;;;;;;18.65;8.48;;;2.70;99.90;;;;;;5059665;28;20020;-64
2023/12/04 09:48:30;;;;;;;18.52;8.95;;;2.70;99.90;;;;;;5057614;28;20115;-64
2023/12/04 09:50:59;;;;;;;19.75;9.13;;;2.70;99.90;;;;;;5058765;28;20028;-64
2023/12/04 09:53:27;;;;;;;20.70;9.07;;;2.70;99.90;;;;;;5057570;28;20089;-64
2023/12/04 09:55:57;;;;;;;18.75;8.55;;;2.80;99.90;;;;;;5059510;28;20048;-64
2023/12/04 09:58:26;;;;;;;17.58;8.60;;;2.80;99.90;;;;;;5056283;28;20044;-64
2023/12/04 10:00:58;;;;;;;17.73;8.68;;;2.80;99.90;;;;;;5057675;28;20158;-64
2023/12/04 10:03:25;;;;;;;15.57;8.00;;;2.80;99.90;;;;;;5056630;28;20183;-64
2023/12/04 10:05:50;;;;;;;14.43;7.25;;;2.90;99.90;;;;;;5060715;28;20055;-64
2023/12/04 10:08:18;;;;;;;15.82;7.85;;;2.90;99.90;;;;;;5056304;28;20613;-64
2023/12/04 10:10:44;;;;;;;;;;;2.90;99.90;;;;;;5057564;28;20032;-64
2023/12/04 10:13:12;;;;;;;20.30;7.28;;;2.80;99.90;;;;;;5059303;28;19912;-64
2023/12/04 10:15:48;;;;;;;;;;;2.90;99.90;;;;;;5056464;28;20032;-64
2023/12/04 10:18:30;;;;;;;15.60;7.45;;;3.00;99.90;;;;;;5055212;28;20436;-64
2023/12/04 10:20:56;;;;;;;15.30;7.88;;;3.00;99.90;;;;;;5059953;28;20485;-64
2023/12/04 10:23:22;;;;;;;16.02;7.88;;;3.00;99.90;;;;;;5057651;28;20024;-64
2023/12/04 10:25:51;;;;;;;15.82;7.75;;;3.00;99.90;;;;;;5062272;28;20401;-64
2023/12/04 10:28:18;;;;;;;14.85;7.20;;;3.00;99.90;;;;;;5057983;28;20401;-64
2023/12/04 10:30:45;;;;;;;15.23;7.18;;;3.10;99.90;;;;;;5058160;28;20991;-64
2023/12/04 10:33:12;;;;;;;14.85;7.40;;;3.20;99.90;;;;;;5055749;28;20619;-64
2023/12/04 10:35:40;;;;;;;15.88;7.88;;;3.20;99.90;;;;;;5056902;28;20498;-64
2023/12/04 10:38:09;;;;;;;14.57;7.45;;;3.20;99.90;;;;;;5055700;28;20036;-64
2023/12/04 10:40:38;;;;;;;13.23;7.15;;;3.20;99.90;;;;;;5056579;28;20067;-64
2023/12/04 10:43:22;;;;;;;12.27;6.82;;;3.30;99.90;;;;;;5056915;28;20036;-64
2023/12/04 10:45:49;;;;;;;14.23;6.63;;;3.30;99.90;;;;;;5058779;28;20032;-64
2023/12/04 10:48:17;;;;;;;14.50;7.07;;;3.40;99.90;;;;;;5056478;28;21141;-64
2023/12/04 10:50:45;;;;;;;15.73;7.45;;;3.40;99.90;;;;;;5057531;28;20052;-64
2023/12/04 10:53:12;;;;;;;14.07;6.97;;;3.40;99.90;;;;;;5055115;28;20375;-64
2023/12/04 10:55:39;;;;;;;12.27;6.18;;;3.50;99.90;;;;;;5055180;28;21309;-64
2023/12/04 10:58:10;;;;;;;19.30;7.15;;;3.60;99.70;;;;;;5057757;28;20036;-64
2023/12/04 11:01:03;;;;;;;12.13;6.93;;;3.50;99.30;;;;;;5061363;28;20215;-64
2023/12/04 11:03:36;;;;;;;11.55;6.43;;;3.50;99.70;;;;;;5054206;28;22090;-64
2023/12/04 11:06:04;;;;;;;13.88;6.40;;;3.50;99.90;;;;;;5056874;28;20513;-64
2023/12/04 11:08:33;;;;;;;14.20;6.60;;;3.50;99.10;;;;;;5055434;28;20549;-64
2023/12/04 11:11:03;;;;;;;13.52;6.45;;;3.40;99.00;;;;;;5055068;28;20478;-64
2023/12/04 11:13:34;;;;;;;12.35;6.20;;;3.40;99.30;;;;;;5055704;28;20024;-64
2023/12/04 11:16:03;;;;;;;12.32;6.35;;;3.40;99.20;;;;;;5059966;28;20032;-64
2023/12/04 11:18:38;;;;;;;11.68;5.72;;;3.40;99.40;;;;;;5056624;28;20118;-64
2023/12/04 11:21:09;;;;;;;11.25;6.40;;;3.40;99.10;;;;;;5059077;28;20028;-65
2023/12/04 11:23:35;;;;;;;11.60;6.35;;;3.40;99.10;;;;;;5056864;28;20028;-64
2023/12/04 11:26:06;;;;;;;14.90;7.00;;;3.50;99.20;;;;;;5058541;28;20028;-64
2023/12/04 11:28:38;;;;;;;13.30;6.72;;;3.50;99.10;;;;;;5036192;28;20028;-66
2023/12/04 11:31:07;;;;;;;10.88;5.78;;;3.50;98.70;;;;;;5057963;28;20383;-65
2023/12/04 11:33:38;;;;;;;13.90;7.07;;;3.50;99.10;;;;;;5055979;28;20032;-64
2023/12/04 11:36:12;;;;;;;16.35;7.28;;;3.50;99.30;;;;;;5057524;28;20055;-67
2023/12/04 11:38:43;;;;;;;11.70;6.15;;;3.60;98.90;;;;;;5056381;28;23098;-64
2023/12/04 11:41:35;;;;;;;16.75;7.13;;;3.50;99.20;;;;;;5058011;28;20028;-64
2023/12/04 11:44:00;;;;;;;14.00;6.78;;;3.50;99.30;;;;;;5054020;28;20036;-63
2023/12/04 11:46:28;;;;;;;13.30;6.22;;;3.60;99.20;;;;;;5059171;28;20444;-63
2023/12/04 11:48:55;;;;;;;12.18;6.45;;;3.50;98.90;;;;;;5056814;28;20047;-63
2023/12/04 11:51:39;;;;;;;15.15;7.22;;;3.50;98.70;;;;;;5060854;28;20060;-64
2023/12/04 11:54:08;;;;;;;12.93;6.10;;;3.60;99.10;;;;;;5057129;28;20036;-63
2023/12/04 11:56:34;;;;;;;15.68;7.15;;;3.70;99.00;;;;;;5061112;28;20151;-63
2023/12/04 11:59:07;;;;;;;15.23;6.60;;;3.70;98.70;;;;;;5061955;28;20042;-63
2023/12/04 12:01:41;;;;;;;10.98;6.00;;;3.60;98.50;;;;;;5062135;28;20123;-63
2023/12/04 12:04:10;;;;;;;13.18;6.45;;;3.60;98.70;;;;;;5058475;28;20040;-63
2023/12/04 12:06:39;;;;;;;13.70;6.18;;;3.60;98.70;;;;;;5046721;28;20023;-63
2023/12/04 12:09:05;;;;;;;13.05;5.90;;;3.60;98.50;;;;;;5040684;28;20039;-64
2023/12/04 12:11:33;;;;;;;11.18;5.78;;;3.70;98.30;;;;;;5062880;28;22150;-63
2023/12/04 12:14:00;;;;;;;13.98;6.43;;;3.70;98.30;;;;;;5061013;28;20082;-63
2023/12/04 12:16:31;;;;;;;9.88;5.57;;;3.60;98.40;;;;;;5060167;28;20598;-63
2023/12/04 12:18:58;;;;;;;15.30;6.20;;;3.60;97.80;;;;;;5061434;28;20036;-63
2023/12/04 12:21:25;;;;;;;;;;;3.60;98.10;;;;;;5064514;28;20032;-63
2023/12/04 12:23:50;;;;;;;10.55;6.03;;;3.50;98.00;;;;;;5061110;28;19959;-63
2023/12/04 12:26:16;;;;;;;11.55;5.93;;;3.50;98.00;;;;;;5061442;28;20032;-63
2023/12/04 12:28:44;;;;;;;10.93;5.78;;;3.50;98.20;;;;;;5060335;28;20036;-63
2023/12/04 12:31:09;;;;;;;;;;;3.50;98.00;;;;;;5061029;28;20044;-63
2023/12/04 12:33:35;;;;;;;11.15;5.78;;;3.60;98.10;;;;;;5059207;28;19938;-63
2023/12/04 12:36:03;;;;;;;13.45;6.13;;;3.60;98.10;;;;;;5063256;28;20036;-63
2023/12/04 12:38:35;;;;;;;17.17;5.50;;;3.70;97.90;;;;;;5057695;28;20068;-63
2023/12/04 12:41:01;;;;;;;13.10;6.20;;;3.60;98.10;;;;;;5062117;28;20023;-63
2023/12/04 12:43:28;;;;;;;12.00;6.32;;;3.60;98.10;;;;;;5058821;28;20081;-63
2023/12/04 12:45:53;;;;;;;12.85;5.82;;;3.60;97.90;;;;;;5059282;28;20016;-63
2023/12/04 12:48:22;;;;;;;10.98;5.68;;;3.60;98.20;;;;;;5075984;22;20338;-63
2023/12/04 12:50:54;;;;;;;8.63;4.82;;;3.50;98.00;;;;;;5056911;28;20354;-63
2023/12/04 12:53:20;;;;;;;10.38;4.85;;;3.50;97.90;;;;;;5053666;28;20032;-63